Time;durP1;ratioP1;P1;durP2;ratioP2;P2;SDS_P1;SDS_P2;PMS_P1;PMS_P2;Temp;Humidity;BMP_temperature;BMP_pressure;BME280_temperature;BME280_humidity;BME280_pressure;Samples;Min_cycle;Max_cycle;Signal;HPM_P1;HPM_P2
2022/07/29 00:00:51;;;;;;;11.73;3.42;;;;;;;13.06;67.04;99262.48;2157511;83;20984;-82
2022/07/29 00:03:51;;;;;;;5.85;3.27;;;;;;;13.04;67.30;99262.90;2157421;83;20886;-80
2022/07/29 00:06:52;;;;;;;10.05;3.85;;;;;;;12.99;67.45;99266.75;2157641;83;20925;-83
2022/07/29 00:09:52;;;;;;;5.35;3.20;;;;;;;12.94;67.54;99266.27;2157835;83;20938;-82
2022/07/29 00:12:53;;;;;;;8.85;3.12;;;;;;;12.92;67.79;99266.25;2157850;83;20933;-82
2022/07/29 00:15:53;;;;;;;8.33;3.33;;;;;;;12.86;67.93;99266.63;2157933;83;20922;-82
2022/07/29 00:18:53;;;;;;;5.85;3.30;;;;;;;12.82;68.04;99268.77;2158038;83;21024;-83
2022/07/29 00:21:54;;;;;;;7.08;3.58;;;;;;;12.81;68.13;99272.26;2157679;83;20981;-82
2022/07/29 00:24:54;;;;;;;4.50;3.10;;;;;;;12.81;68.31;99269.64;2157727;83;20925;-83
2022/07/29 00:27:55;;;;;;;11.93;3.40;;;;;;;12.74;68.44;99276.13;2158044;83;20909;-83
2022/07/29 00:30:55;;;;;;;5.75;2.90;;;;;;;12.65;68.63;99266.87;2157828;83;20993;-82
2022/07/29 00:33:55;;;;;;;7.30;3.52;;;;;;;12.63;68.45;99277.77;2157980;83;20921;-83
2022/07/29 00:36:56;;;;;;;10.93;3.77;;;;;;;12.54;68.74;99280.28;2157895;83;20922;-84
2022/07/29 00:39:56;;;;;;;5.47;3.10;;;;;;;12.44;68.92;99283.23;2157864;83;21373;-82
2022/07/29 00:42:57;;;;;;;17.52;4.97;;;;;;;12.39;69.30;99277.06;2157707;83;20886;-81
2022/07/29 00:45:57;;;;;;;9.38;3.62;;;;;;;12.40;69.55;99276.20;2157554;83;20937;-82
2022/07/29 00:48:58;;;;;;;6.05;3.17;;;;;;;12.36;69.60;99276.16;2157245;82;21432;-83
2022/07/29 00:51:58;;;;;;;6.40;3.35;;;;;;;12.33;69.84;99281.35;2126140;83;20908;-82
2022/07/29 00:54:58;;;;;;;13.72;4.37;;;;;;;12.25;69.95;99277.77;2157607;82;20926;-82
2022/07/29 00:57:59;;;;;;;4.87;3.27;;;;;;;12.16;70.17;99275.03;2157781;83;20917;-82
2022/07/29 01:00:59;;;;;;;7.40;3.30;;;;;;;12.11;70.27;99278.44;2156931;83;20969;-82
2022/07/29 01:04:00;;;;;;;5.87;3.37;;;;;;;12.07;70.66;99271.84;2157431;83;20914;-82
2022/07/29 01:07:00;;;;;;;6.75;3.87;;;;;;;12.03;70.58;99272.23;2157610;83;20913;-82
2022/07/29 01:10:00;;;;;;;8.63;3.62;;;;;;;11.96;70.62;99280.86;2157288;83;20965;-82
2022/07/29 01:13:01;;;;;;;4.53;3.42;;;;;;;11.94;71.17;99278.66;2157658;83;20882;-82
2022/07/29 01:16:01;;;;;;;5.83;3.65;;;;;;;11.89;71.11;99268.56;2157393;83;20910;-82
2022/07/29 01:19:02;;;;;;;8.00;3.33;;;;;;;11.85;71.25;99269.37;2157340;83;20981;-82
2022/07/29 01:22:02;;;;;;;9.35;3.62;;;;;;;11.84;71.37;99265.00;2157678;83;21284;-82
2022/07/29 01:25:03;;;;;;;8.88;3.58;;;;;;;11.79;71.37;99264.06;2157134;83;20957;-82
2022/07/29 01:28:03;;;;;;;4.70;3.58;;;;;;;11.75;71.72;99265.73;2158228;83;20953;-82
2022/07/29 01:31:03;;;;;;;21.10;3.55;;;;;;;11.70;71.92;99266.09;2126563;84;20909;-83
2022/07/29 01:34:04;;;;;;;5.35;3.00;;;;;;;11.69;72.02;99271.30;2157917;82;20901;-82
2022/07/29 01:37:04;;;;;;;7.92;3.35;;;;;;;11.62;72.01;99259.88;2158539;83;20886;-83
2022/07/29 01:40:05;;;;;;;5.67;3.62;;;;;;;11.58;72.37;99267.66;2158229;83;21313;-83
2022/07/29 01:43:05;;;;;;;4.85;3.40;;;;;;;11.51;72.54;99266.69;2158088;83;20958;-83
2022/07/29 01:46:05;;;;;;;8.93;3.98;;;;;;;11.47;72.54;99269.68;2158255;83;20934;-82
2022/07/29 01:49:06;;;;;;;5.37;3.52;;;;;;;11.44;72.42;99263.10;2159966;82;21371;-84
2022/07/29 01:52:06;;;;;;;24.07;5.08;;;;;;;11.40;72.88;99262.61;2221886;80;20897;-82
2022/07/29 01:55:07;;;;;;;13.90;3.98;;;;;;;12.55;73.44;99255.85;2221193;79;20849;-82
2022/07/29 01:58:07;;;;;;;5.15;3.27;;;;;;;12.43;71.50;99257.91;2221974;79;20905;-83
2022/07/29 02:01:07;;;;;;;7.15;3.20;;;;;;;12.17;70.83;99258.47;2221807;79;21307;-81
2022/07/29 02:04:09;;;;;;;5.92;3.20;;;;;;;11.93;70.91;99265.55;2221674;79;20933;-82
2022/07/29 02:07:08;;;;;;;16.67;3.22;;;;;;;11.76;71.24;99263.98;2221928;79;20897;-82
2022/07/29 02:10:09;;;;;;;8.33;3.37;;;;;;;11.59;71.44;99257.22;2221641;79;20944;-82
2022/07/29 02:13:09;;;;;;;6.42;3.72;;;;;;;11.42;71.73;99254.78;2221506;79;20909;-81
2022/07/29 02:16:09;;;;;;;6.95;3.67;;;;;;;11.34;72.55;99255.98;2221249;80;20945;-82
2022/07/29 02:19:10;;;;;;;8.78;4.08;;;;;;;11.29;72.66;99258.95;2221665;79;21492;-82
2022/07/29 02:22:10;;;;;;;11.53;3.47;;;;;;;11.23;72.83;99254.02;2221281;79;20904;-82
2022/07/29 02:25:11;;;;;;;7.67;3.67;;;;;;;11.14;73.24;99253.45;2221609;79;20870;-81
2022/07/29 02:28:11;;;;;;;3.50;3.10;;;;;;;11.07;73.30;99244.63;2221576;79;20912;-82
2022/07/29 02:31:11;;;;;;;7.47;3.90;;;;;;;11.11;73.66;99251.66;2221135;79;20889;-81
2022/07/29 02:34:12;;;;;;;46.60;6.63;;;;;;;11.05;73.65;99250.69;2221087;79;20904;-83
2022/07/29 02:37:12;;;;;;;8.50;3.87;;;;;;;10.97;74.05;99248.38;2221211;79;20936;-81
2022/07/29 02:40:14;;;;;;;5.67;3.33;;;;;;;10.94;74.21;99245.72;2220923;80;20964;-83
2022/07/29 02:43:13;;;;;;;7.80;3.60;;;;;;;10.91;74.12;99250.89;2221314;79;20897;-82
2022/07/29 02:46:14;;;;;;;8.50;3.67;;;;;;;10.88;74.30;99240.39;2221289;79;20901;-81
2022/07/29 02:49:14;;;;;;;5.00;3.70;;;;;;;10.89;74.44;99244.33;2225560;79;21011;-83
2022/07/29 02:52:14;;;;;;;11.27;3.97;;;;;;;10.81;74.29;99240.28;2238587;80;20887;-81
2022/07/29 02:55:15;;;;;;;49.20;5.07;;;;;;;10.79;74.55;99237.20;2238937;79;20908;-81
2022/07/29 02:58:15;;;;;;;6.00;3.50;;;;;;;10.80;74.90;99241.56;2238957;79;20912;-82
2022/07/29 03:01:19;;;;;;;4.93;3.33;;;;;;;10.81;74.82;99241.59;2238985;79;21004;-82
2022/07/29 03:04:19;;;;;;;14.43;3.98;;;;;;;10.80;75.09;99232.42;2239112;79;20904;-83
2022/07/29 03:07:19;;;;;;;7.50;3.50;;;;;;;10.81;75.35;99234.19;2238915;79;20901;-82
2022/07/29 03:10:20;;;;;;;5.63;3.57;;;;;;;10.73;75.01;99232.75;2239024;79;20872;-82
2022/07/29 03:13:20;;;;;;;7.87;3.80;;;;;;;10.74;75.25;99241.03;2238983;79;20916;-81
2022/07/29 03:16:21;;;;;;;4.93;3.47;;;;;;;10.80;75.32;99238.52;2238827;79;21272;-82
2022/07/29 03:19:21;;;;;;;6.87;4.03;;;;;;;10.80;75.12;99226.78;2238581;79;20927;-82
2022/07/29 03:22:21;;;;;;;8.97;3.43;;;;;;;10.75;75.20;99229.73;2238798;79;20924;-82
2022/07/29 03:25:22;;;;;;;5.73;3.80;;;;;;;10.76;75.54;99231.49;2238826;79;20864;-83
2022/07/29 03:28:22;;;;;;;8.83;3.50;;;;;;;10.77;75.57;99232.38;2238760;79;20901;-83
2022/07/29 03:31:23;;;;;;;5.80;3.67;;;;;;;10.78;75.65;99234.13;2238810;80;20948;-83
2022/07/29 03:34:23;;;;;;;6.13;3.57;;;;;;;10.81;75.67;99228.53;2239095;79;20935;-83
2022/07/29 03:37:23;;;;;;;5.20;3.30;;;;;;;10.87;75.64;99226.88;2238446;79;21138;-83
2022/07/29 03:40:24;;;;;;;11.63;3.63;;;;;;;10.89;75.58;99226.48;2239083;79;20921;-82
2022/07/29 03:43:24;;;;;;;9.10;3.60;;;;;;;10.93;75.57;99235.70;2239015;79;20932;-79
2022/07/29 03:46:25;;;;;;;10.37;3.67;;;;;;;10.98;75.56;99239.26;2238179;79;20896;-82
2022/07/29 03:49:25;;;;;;;9.17;3.27;;;;;;;11.06;75.63;99249.83;2238220;79;21261;-81
2022/07/29 03:52:25;;;;;;;5.07;3.60;;;;;;;11.13;75.61;99246.47;2237777;79;20892;-81
2022/07/29 03:55:26;;;;;;;454.77;36.20;;;;;;;11.18;75.28;99248.72;2236930;79;20892;-80
2022/07/29 03:58:26;;;;;;;12.20;4.73;;;;;;;11.22;75.64;99241.38;2236561;79;20951;-82
2022/07/29 04:01:27;;;;;;;7.67;3.73;;;;;;;11.33;75.61;99237.23;2236085;79;20927;-83
2022/07/29 04:04:27;;;;;;;6.10;3.50;;;;;;;11.46;75.43;99243.09;2235854;79;20888;-82
2022/07/29 04:07:28;;;;;;;13.90;4.17;;;;;;;11.54;75.52;99247.13;2235962;79;20932;-82
2022/07/29 04:10:28;;;;;;;7.57;4.07;;;;;;;11.69;75.57;99251.26;2236518;79;20935;-81
2022/07/29 04:13:28;;;;;;;5.43;3.40;;;;;;;11.82;75.29;99252.77;2237151;79;21346;-82
2022/07/29 04:16:29;;;;;;;12.83;4.50;;;;;;;11.94;75.25;99248.57;2237067;79;20896;-81
2022/07/29 04:19:29;;;;;;;6.70;4.13;;;;;;;12.03;75.02;99248.69;2237615;79;21004;-82
2022/07/29 04:22:29;;;;;;;7.40;4.30;;;;;;;12.15;75.12;99245.38;2237873;79;20936;-81
2022/07/29 04:25:30;;;;;;;9.17;4.13;;;;;;;12.36;74.90;99243.42;2237897;79;20975;-82
2022/07/29 04:28:30;;;;;;;12.30;4.80;;;;;;;12.54;74.72;99235.77;2238090;79;20912;-83
2022/07/29 04:31:31;;;;;;;21.70;4.70;;;;;;;12.74;74.67;99232.91;2238176;80;20963;-81
2022/07/29 04:34:31;;;;;;;24.85;4.70;;;;;;;13.19;74.92;99232.91;2237665;79;20908;-83
2022/07/29 04:37:31;;;;;;;11.43;3.90;;;;;;;13.47;73.71;99230.48;2237183;80;20972;-81
2022/07/29 04:40:32;;;;;;;14.80;4.42;;;;;;;13.72;73.43;99233.69;2236820;79;20900;-81
2022/07/29 04:43:32;;;;;;;13.30;4.10;;;;;;;13.94;73.31;99239.52;2236671;79;20948;-82
2022/07/29 04:46:33;;;;;;;7.97;4.00;;;;;;;14.16;73.09;99235.23;2236492;79;21534;-82
2022/07/29 04:49:33;;;;;;;6.72;3.95;;;;;;;14.32;72.81;99237.04;2236357;79;20920;-81
2022/07/29 04:52:34;;;;;;;12.25;4.75;;;;;;;14.58;72.91;99231.88;2225507;80;20949;-81
2022/07/29 04:55:34;;;;;;;11.28;4.15;;;;;;;14.85;73.06;99231.52;2225404;79;20920;-81
2022/07/29 04:58:34;;;;;;;13.88;4.83;;;;;;;15.11;72.52;99238.09;2225162;79;20924;-82
2022/07/29 05:01:35;;;;;;;18.12;4.28;;;;;;;15.35;71.66;99228.88;2225680;79;20932;-83
2022/07/29 05:04:35;;;;;;;10.08;3.87;;;;;;;15.60;71.26;99225.38;2225406;79;21008;-84
2022/07/29 05:07:36;;;;;;;198.40;16.97;;;;;;;15.88;70.97;99220.03;2225598;79;20910;-82
2022/07/29 05:10:37;;;;;;;51.13;8.88;;;;;;;16.21;70.02;99230.87;2226145;79;20924;-81
2022/07/29 05:13:36;;;;;;;17.17;4.67;;;;;;;16.61;69.54;99226.73;2226037;79;20952;-82
2022/07/29 05:16:38;;;;;;;13.58;3.55;;;;;;;16.98;68.82;99226.94;2225991;79;20963;-83
2022/07/29 05:19:37;;;;;;;12.20;3.70;;;;;;;17.20;68.03;99217.95;2225283;79;21095;-82
2022/07/29 05:22:38;;;;;;;6.00;2.98;;;;;;;17.44;67.85;99213.37;2225983;80;20972;-83
2022/07/29 05:25:38;;;;;;;3.92;2.87;;;;;;;17.65;66.25;99219.75;2225545;79;20907;-83
2022/07/29 05:28:38;;;;;;;32.20;5.75;;;;;;;17.88;65.30;99218.64;2225042;79;20983;-85
2022/07/29 05:31:39;;;;;;;17.10;4.70;;;;;;;17.95;66.78;99218.56;2225105;80;20884;-80
2022/07/29 05:34:39;;;;;;;5.37;2.67;;;;;;;18.98;66.07;99212.31;2224204;80;20885;-78
2022/07/29 05:37:40;;;;;;;19.87;3.30;;;;;;;19.51;61.98;99212.32;2225441;79;21328;-80
2022/07/29 05:40:40;;;;;;;2.85;1.90;;;;;;;19.54;61.09;99209.20;2225923;79;20968;-82
2022/07/29 05:43:41;;;;;;;3.37;1.87;;;;;;;19.70;59.90;99211.11;2225110;80;21024;-81
2022/07/29 05:46:42;;;;;;;4.92;2.17;;;;;;;19.93;58.68;99217.28;2226192;79;21438;-81
2022/07/29 05:49:42;;;;;;;5.17;2.25;;;;;;;20.11;58.14;99203.69;2225380;79;20932;-83
2022/07/29 05:52:43;;;;;;;7.03;2.10;;;;;;;20.29;57.25;99199.31;2191327;81;21012;-78
2022/07/29 05:55:43;;;;;;;4.42;1.85;;;;;;;20.37;56.71;99199.15;2156495;82;20964;-82
2022/07/29 05:58:43;;;;;;;8.33;1.80;;;;;;;20.62;55.51;99204.80;2155111;83;21119;-81
2022/07/29 06:01:44;;;;;;;5.25;1.90;;;;;;;20.87;54.64;99204.68;2154065;83;20957;-79
2022/07/29 06:04:44;;;;;;;6.22;2.05;;;;;;;21.10;54.22;99204.11;2155105;83;21581;-81
2022/07/29 06:07:45;;;;;;;6.97;2.10;;;;;;;21.28;53.36;99206.34;2154699;83;20945;-81
2022/07/29 06:10:48;;;;;;;67.42;6.42;;;;;;;21.39;52.53;99211.83;2154916;83;20914;-84
2022/07/29 06:13:48;;;;;;;5.10;2.10;;;;;;;21.56;50.74;99215.78;2155696;83;21415;-84
2022/07/29 06:16:49;;;;;;;3.62;1.92;;;;;;;21.70;51.00;99213.23;2157240;83;20929;-83
2022/07/29 06:19:49;;;;;;;4.00;1.77;;;;;;;21.88;49.92;99210.07;2156509;83;20989;-82
2022/07/29 06:22:50;;;;;;;7.30;2.27;;;;;;;21.98;49.13;99209.35;2155733;83;21028;-81
2022/07/29 06:25:50;;;;;;;7.80;2.02;;;;;;;22.15;48.66;99204.00;2155077;83;20969;-83
2022/07/29 06:28:50;;;;;;;5.50;2.00;;;;;;;22.39;49.50;99210.38;2155330;83;20930;-84
2022/07/29 06:31:51;;;;;;;8.25;2.75;;;;;;;22.51;47.60;99204.67;2155259;83;21001;-83
2022/07/29 06:34:51;;;;;;;5.87;2.20;;;;;;;22.62;48.05;99209.70;2155272;83;20968;-84
2022/07/29 06:37:52;;;;;;;4.03;1.87;;;;;;;22.86;46.56;99214.28;2156073;83;20968;-83
2022/07/29 06:41:02;;;;;;;8.73;2.30;;;;;;;23.08;46.71;99218.91;2155357;83;21366;-83
2022/07/29 06:44:02;;;;;;;5.80;2.20;;;;;;;23.34;46.24;99222.90;2161104;82;20917;-83
2022/07/29 06:47:02;;;;;;;5.58;1.55;;;;;;;23.58;44.46;99220.38;2136448;83;20904;-84
2022/07/29 06:50:02;;;;;;;6.00;1.80;;;;;;;23.63;43.04;99209.09;2167860;81;21038;-83
2022/07/29 06:53:03;;;;;;;5.92;2.00;;;;;;;23.69;43.81;99219.54;2144213;83;21271;-84
2022/07/29 06:56:03;;;;;;;5.67;1.92;;;;;;;23.82;44.64;99223.52;2165981;82;20932;-83
2022/07/29 06:59:04;;;;;;;3.80;1.90;;;;;;;24.07;43.37;99228.36;2139935;83;20943;-82
2022/07/29 07:02:07;;;;;;;7.55;2.02;;;;;;;24.20;43.43;99221.23;2165837;82;20948;-83
2022/07/29 07:05:07;;;;;;;8.50;1.70;;;;;;;24.21;42.73;99218.97;2141250;83;20923;-82
2022/07/29 07:08:08;;;;;;;5.65;1.80;;;;;;;24.45;42.64;99214.97;2166622;82;20909;-84
2022/07/29 07:11:08;;;;;;;9.35;1.85;;;;;;;24.66;42.25;99219.94;2140865;83;20932;-84
2022/07/29 07:14:08;;;;;;;3.87;1.77;;;;;;;24.61;41.60;99229.92;2166510;82;20921;-83
2022/07/29 07:17:09;;;;;;;6.95;1.80;;;;;;;24.96;41.32;99220.98;2140317;83;20928;-84
2022/07/29 07:20:09;;;;;;;14.38;2.40;;;;;;;25.37;40.30;99214.84;2165396;82;21031;-83
2022/07/29 07:23:10;;;;;;;4.62;2.12;;;;;;;25.45;39.25;99217.66;2140096;83;20951;-83
2022/07/29 07:26:10;;;;;;;3.92;1.75;;;;;;;25.73;38.83;99210.69;2165467;82;20950;-81
2022/07/29 07:29:11;;;;;;;6.65;1.82;;;;;;;25.88;39.14;99216.22;2140011;83;21414;-83
2022/07/29 07:32:12;;;;;;;9.00;1.60;;;;;;;26.11;39.01;99208.53;2165539;82;21014;-82
2022/07/29 07:35:11;;;;;;;4.05;1.80;;;;;;;26.21;38.57;99204.50;2140478;83;21360;-82
2022/07/29 07:38:12;;;;;;;5.22;1.92;;;;;;;26.17;38.46;99204.70;2166784;82;20965;-82
2022/07/29 07:41:12;;;;;;;2.65;1.70;;;;;;;26.06;37.82;99202.52;2140974;83;20955;-83
2022/07/29 07:44:12;;;;;;;9.40;2.20;;;;;;;26.09;37.31;99205.53;2165990;82;20948;-82
2022/07/29 07:47:13;;;;;;;9.13;1.90;;;;;;;26.14;37.59;99203.52;2140400;83;20979;-81
2022/07/29 07:50:13;;;;;;;7.37;2.10;;;;;;;26.05;37.00;99210.62;2161865;82;20961;-80
2022/07/29 07:53:14;;;;;;;7.33;2.02;;;;;;;26.14;37.59;99211.54;2210556;80;21007;-79
2022/07/29 07:56:14;;;;;;;7.95;2.02;;;;;;;26.37;37.01;99208.70;2211553;80;21257;-81
2022/07/29 07:59:14;;;;;;;6.15;2.10;;;;;;;26.54;37.50;99210.58;2211173;79;20905;-80
2022/07/29 08:02:15;;;;;;;8.48;2.12;;;;;;;26.84;36.74;99205.56;2211533;79;20944;-80
2022/07/29 08:05:16;;;;;;;22.58;2.80;;;;;;;27.06;36.66;99201.42;2211349;79;20896;-81
2022/07/29 08:08:16;;;;;;;3.67;1.85;;;;;;;27.26;35.64;99206.19;2211040;79;21279;-80
2022/07/29 08:11:16;;;;;;;5.17;1.95;;;;;;;27.34;35.69;99202.25;2211181;79;21000;-80
2022/07/29 08:14:16;;;;;;;4.67;1.87;;;;;;;27.62;35.84;99199.91;2211130;79;20904;-82
2022/07/29 08:17:17;;;;;;;6.05;2.05;;;;;;;27.62;35.84;99199.91;2211149;80;20921;-80
2022/07/29 08:20:17;;;;;;;4.60;2.10;;;;;;;27.81;34.82;99200.72;2210247;79;20968;-80
2022/07/29 08:23:18;;;;;;;7.45;1.67;;;;;;;27.92;34.46;99201.48;2211463;79;20976;-81
2022/07/29 08:26:18;;;;;;;3.45;1.77;;;;;;;27.83;33.76;99201.98;2211075;80;20893;-80
2022/07/29 08:29:19;;;;;;;7.28;2.02;;;;;;;27.55;33.81;99193.10;2211046;79;20929;-82
2022/07/29 08:32:19;;;;;;;10.35;2.65;;;;;;;27.46;34.21;99193.58;2211304;79;21272;-81
2022/07/29 08:35:19;;;;;;;5.05;1.80;;;;;;;27.44;34.84;99192.31;2211695;79;20917;-82
2022/07/29 08:38:20;;;;;;;7.62;2.50;;;;;;;27.70;34.85;99191.47;2211465;80;20921;-83
2022/07/29 08:41:20;;;;;;;4.53;1.85;;;;;;;27.70;34.63;99189.66;2211804;79;20976;-83
2022/07/29 08:44:21;;;;;;;5.90;2.08;;;;;;;27.78;34.25;99187.47;2211546;79;21315;-81
2022/07/29 08:47:21;;;;;;;5.00;2.02;;;;;;;27.75;33.79;99180.92;2211454;79;20968;-81
2022/07/29 08:50:21;;;;;;;17.00;3.30;;;;;;;28.09;34.01;99181.80;2212784;80;20924;-81
2022/07/29 08:53:22;;;;;;;10.88;2.22;;;;;;;28.24;33.25;99195.76;2217715;80;21043;-80
2022/07/29 08:56:22;;;;;;;5.28;2.17;;;;;;;28.01;32.83;99188.05;2219904;80;20913;-81
2022/07/29 08:59:23;;;;;;;4.00;1.72;;;;;;;27.95;33.06;99195.09;2225436;79;20939;-81
2022/07/29 09:02:23;;;;;;;8.50;2.10;;;;;;;28.10;33.66;99188.91;2225399;79;20896;-82
2022/07/29 09:05:23;;;;;;;8.28;2.08;;;;;;;28.30;33.26;99184.69;2225484;79;21546;-82
2022/07/29 09:08:24;;;;;;;3.72;1.80;;;;;;;28.40;32.61;99191.75;2225683;79;20904;-82
2022/07/29 09:11:24;;;;;;;2.20;1.57;;;;;;;28.34;33.02;99187.59;2225909;79;20984;-82
2022/07/29 09:14:25;;;;;;;11.45;2.35;;;;;;;28.22;33.03;99188.23;2225503;79;20913;-82
2022/07/29 09:17:25;;;;;;;4.30;2.15;;;;;;;28.10;33.06;99185.73;2224322;80;20930;-83
2022/07/29 09:20:25;;;;;;;10.80;2.22;;;;;;;27.98;33.37;99187.75;2224458;80;20932;-81
2022/07/29 09:23:26;;;;;;;4.17;1.85;;;;;;;28.05;33.24;99182.91;2225531;79;21023;-82
2022/07/29 09:26:26;;;;;;;4.80;2.00;;;;;;;28.36;33.64;99182.14;2225356;79;21363;-82
2022/07/29 09:29:27;;;;;;;4.37;1.85;;;;;;;28.42;32.33;99188.03;2225307;80;21335;-82
2022/07/29 09:32:27;;;;;;;5.25;1.98;;;;;;;28.28;32.71;99183.91;2225402;79;20935;-82
2022/07/29 09:35:29;;;;;;;7.47;2.12;;;;;;;28.33;32.66;99166.20;2226856;79;20901;-82
2022/07/29 09:38:29;;;;;;;4.70;2.67;;;;;;;28.38;32.95;99174.86;2226179;79;21414;-83
2022/07/29 09:41:29;;;;;;;7.72;2.33;;;;;;;28.48;33.20;99170.23;2225521;80;20999;-81
2022/07/29 09:44:30;;;;;;;57.88;6.95;;;;;;;28.67;33.38;99160.70;2225360;80;20936;-80
2022/07/29 09:47:30;;;;;;;3.12;2.35;;;;;;;28.69;32.41;99148.05;2225455;79;20877;-82
2022/07/29 09:50:31;;;;;;;5.67;2.25;;;;;;;28.80;33.02;99154.14;2224118;79;20971;-82
2022/07/29 09:53:32;;;;;;;5.20;2.27;;;;;;;28.83;33.34;99152.63;2177666;81;20983;-82
2022/07/29 09:56:31;;;;;;;6.25;2.00;;;;;;;28.75;33.23;99148.17;2164364;81;20921;-83
2022/07/29 09:59:32;;;;;;;5.90;2.17;;;;;;;28.71;32.63;99150.64;2139480;82;20951;-82
2022/07/29 10:02:32;;;;;;;4.53;2.35;;;;;;;28.87;33.15;99150.18;2164496;81;21321;-83
2022/07/29 10:05:33;;;;;;;4.72;2.35;;;;;;;29.26;32.21;99138.03;2139286;82;20924;-83
2022/07/29 10:08:33;;;;;;;15.08;3.40;;;;;;;28.99;32.63;99141.88;2164554;81;20921;-84
2022/07/29 10:11:34;;;;;;;4.55;2.08;;;;;;;29.10;33.15;99132.23;2140258;82;20939;-83
2022/07/29 10:14:34;;;;;;;6.08;1.80;;;;;;;29.26;32.62;99140.25;2166396;81;20925;-82
2022/07/29 10:17:34;;;;;;;3.55;2.00;;;;;;;29.14;32.27;99128.88;2141384;83;20960;-82
2022/07/29 10:20:35;;;;;;;8.00;2.40;;;;;;;29.32;32.52;99130.47;2165961;81;21422;-81
2022/07/29 10:23:36;;;;;;;4.03;2.33;;;;;;;29.46;31.98;99131.87;2140984;82;20991;-78
2022/07/29 10:26:40;;;;;;;6.58;2.42;;;;;;;29.29;32.12;99130.66;2165658;82;20917;-80
2022/07/29 10:29:38;;;;;;;4.30;2.70;;;;;;;29.30;32.68;99139.58;2120332;83;20912;-81
2022/07/29 10:32:38;;;;;;;64.60;8.58;;;;;;;29.44;32.12;99146.38;2165406;81;20897;-81
2022/07/29 10:35:39;;;;;;;8.65;2.80;;;;;;;29.66;31.93;99140.58;2140553;82;21036;-81
2022/07/29 10:38:39;;;;;;;4.75;2.60;;;;;;;29.67;32.30;99127.03;2165995;81;21612;-81
2022/07/29 10:41:42;;;;;;;5.35;2.80;;;;;;;29.67;31.65;99125.69;2139467;82;20947;-82
2022/07/29 10:44:40;;;;;;;3.75;2.80;;;;;;;29.42;32.13;99130.30;2164624;81;20925;-81
2022/07/29 10:47:40;;;;;;;6.72;2.50;;;;;;;29.32;32.26;99126.91;2139220;83;21354;-81
2022/07/29 10:50:41;;;;;;;3.70;1.90;;;;;;;29.21;32.14;99130.73;2164971;81;20972;-82
2022/07/29 10:53:44;;;;;;;4.75;2.50;;;;;;;29.21;32.36;99130.25;2165208;82;20984;-81
2022/07/29 10:56:45;;;;;;;5.75;2.70;;;;;;;29.37;31.64;99120.30;2164604;82;21459;-82
2022/07/29 10:59:45;;;;;;;8.45;6.33;;;;;;;29.40;32.55;99119.25;2139991;82;21015;-79
2022/07/29 11:02:48;;;;;;;7.20;2.98;;;;;;;29.52;32.40;99117.22;2165424;82;20992;-82
2022/07/29 11:05:46;;;;;;;5.87;2.70;;;;;;;29.91;32.08;99117.05;2140233;83;21758;-82
2022/07/29 11:08:46;;;;;;;8.10;2.70;;;;;;;30.17;31.14;99128.41;2165059;81;20925;-80
2022/07/29 11:11:47;;;;;;;5.62;2.30;;;;;;;30.24;30.96;99123.02;2140521;83;20920;-82
2022/07/29 11:14:47;;;;;;;3.33;2.37;;;;;;;30.13;30.87;99110.72;2164975;81;20925;-81
2022/07/29 11:17:47;;;;;;;5.62;2.25;;;;;;;29.93;30.56;99107.92;2139952;83;20926;-81
2022/07/29 11:20:49;;;;;;;5.90;2.40;;;;;;;29.52;31.31;99099.74;2164879;81;20909;-81
2022/07/29 11:23:48;;;;;;;8.18;2.50;;;;;;;29.43;31.70;99106.52;2139101;82;20889;-80
2022/07/29 11:26:49;;;;;;;5.42;3.27;;;;;;;29.77;31.86;99096.39;2163894;81;20964;-80
2022/07/29 11:29:49;;;;;;;4.70;2.72;;;;;;;30.06;31.01;99098.62;2138777;82;20928;-80
2022/07/29 11:32:50;;;;;;;5.72;2.60;;;;;;;30.16;31.15;99102.93;2164743;82;21012;-82
2022/07/29 11:35:50;;;;;;;6.87;3.08;;;;;;;30.21;30.80;99107.54;2139277;82;21331;-81
2022/07/29 11:38:50;;;;;;;28.85;4.47;;;;;;;30.23;30.69;99103.78;2164899;81;21028;-80
2022/07/29 11:41:51;;;;;;;4.25;2.60;;;;;;;30.28;30.69;99115.61;2138362;82;21003;-82
2022/07/29 11:44:51;;;;;;;6.60;2.80;;;;;;;30.13;30.47;99104.00;2164061;81;20921;-81
2022/07/29 11:47:52;;;;;;;5.50;2.83;;;;;;;29.97;30.98;99089.75;2138687;82;21348;-83
2022/07/29 11:50:52;;;;;;;3.42;2.90;;;;;;;29.88;30.99;99084.47;2163454;81;20984;-80
2022/07/29 11:53:52;;;;;;;4.90;2.85;;;;;;;30.09;31.59;99087.66;2164102;82;20988;-81
2022/07/29 11:56:53;;;;;;;7.92;2.98;;;;;;;30.16;31.03;99093.03;2163701;82;21276;-81
2022/07/29 11:59:53;;;;;;;7.10;3.05;;;;;;;30.03;30.76;99094.30;2163513;82;21004;-81
2022/07/29 12:02:53;;;;;;;3.10;2.60;;;;;;;29.99;30.81;99095.90;2138298;82;20987;-81
2022/07/29 12:05:54;;;;;;;5.78;3.08;;;;;;;29.86;31.36;99090.91;2163331;81;20974;-82
2022/07/29 12:08:54;;;;;;;3.10;2.80;;;;;;;30.00;31.66;99081.48;2138146;82;20911;-81
2022/07/29 12:11:55;;;;;;;5.92;3.40;;;;;;;30.05;31.28;99076.70;2163279;81;20968;-81
2022/07/29 12:14:55;;;;;;;8.35;3.25;;;;;;;30.07;31.66;99073.44;2138224;82;20920;-81
2022/07/29 12:17:55;;;;;;;5.75;3.35;;;;;;;30.36;30.82;99071.58;2163795;81;20901;-83
2022/07/29 12:20:56;;;;;;;4.22;2.90;;;;;;;30.76;30.69;99066.27;2138970;82;21334;-81
2022/07/29 12:23:56;;;;;;;4.42;3.20;;;;;;;31.09;30.86;99064.45;2162692;81;20976;-81
2022/07/29 12:26:57;;;;;;;8.58;3.17;;;;;;;31.20;29.85;99064.61;2137989;83;20952;-81
2022/07/29 12:29:57;;;;;;;4.05;2.77;;;;;;;30.96;30.12;99062.59;2163527;81;20952;-83
2022/07/29 12:32:57;;;;;;;24.57;4.53;;;;;;;30.95;30.03;99062.70;2138087;82;21377;-82
2022/07/29 12:35:58;;;;;;;12.90;3.85;;;;;;;30.89;30.26;99061.29;2162872;82;20929;-80
2022/07/29 12:38:58;;;;;;;6.28;4.50;;;;;;;30.89;30.26;99061.29;2137972;83;20928;-80
2022/07/29 12:41:59;;;;;;;5.55;4.22;;;;;;;30.61;30.37;99060.08;2163881;81;21653;-80
2022/07/29 12:44:59;;;;;;;4.28;3.00;;;;;;;30.17;30.43;99059.77;2138508;83;20908;-82
2022/07/29 12:48:00;;;;;;;3.87;3.40;;;;;;;29.72;31.33;99056.33;2164037;82;20965;-81
2022/07/29 12:51:01;;;;;;;6.75;3.50;;;;;;;29.67;32.15;99062.47;2139147;82;20959;-81
2022/07/29 12:54:00;;;;;;;3.90;2.75;;;;;;;29.54;31.90;99054.79;2164785;82;20973;-80
2022/07/29 12:57:01;;;;;;;6.67;2.85;;;;;;;29.32;32.55;99051.63;2165489;82;21123;-81
2022/07/29 13:00:02;;;;;;;4.50;2.55;;;;;;;29.28;32.47;99058.16;2166107;82;20942;-82
2022/07/29 13:03:04;;;;;;;6.30;2.45;;;;;;;29.22;32.32;99058.53;2122406;83;20951;-81
2022/07/29 13:06:04;;;;;;;2.65;2.45;;;;;;;29.26;32.73;99053.36;2166210;81;20945;-82
2022/07/29 13:09:04;;;;;;;15.68;3.10;;;;;;;29.70;32.38;99052.87;2140143;82;20952;-81
2022/07/29 13:12:05;;;;;;;5.12;2.60;;;;;;;30.04;31.88;99050.75;2165432;82;20972;-81
2022/07/29 13:15:05;;;;;;;3.20;2.77;;;;;;;30.04;31.88;99050.75;2140437;82;21619;-81
2022/07/29 13:18:06;;;;;;;7.05;2.70;;;;;;;30.19;31.86;99043.03;2164852;81;21309;-80
2022/07/29 13:21:06;;;;;;;4.67;2.42;;;;;;;30.26;31.78;99038.97;2140142;83;20995;-80
2022/07/29 13:24:06;;;;;;;6.35;2.47;;;;;;;30.35;31.81;99042.92;2165869;82;20921;-80
2022/07/29 13:27:07;;;;;;;12.45;3.20;;;;;;;30.47;31.27;99043.45;2139944;82;20960;-77
2022/07/29 13:30:07;;;;;;;4.70;2.75;;;;;;;30.52;30.96;99033.23;2165013;82;21024;-80
2022/07/29 13:33:08;;;;;;;5.87;2.80;;;;;;;30.29;31.70;99032.52;2139974;82;20912;-80
2022/07/29 13:36:08;;;;;;;3.40;2.80;;;;;;;30.29;31.70;99032.52;2165375;81;20945;-81
2022/07/29 13:39:08;;;;;;;3.50;2.40;;;;;;;30.23;31.13;99034.27;2140855;82;20912;-80
2022/07/29 13:42:09;;;;;;;3.95;2.67;;;;;;;30.25;31.42;99034.55;2165393;81;21031;-82
2022/07/29 13:45:10;;;;;;;4.72;2.90;;;;;;;30.39;31.20;99028.28;2140859;83;20971;-79
2022/07/29 13:48:10;;;;;;;7.25;2.77;;;;;;;30.62;31.49;99020.91;2166466;81;20917;-81
2022/07/29 13:51:10;;;;;;;2.55;2.20;;;;;;;30.70;30.92;99021.25;2141044;82;20932;-80
2022/07/29 13:54:10;;;;;;;7.33;3.87;;;;;;;30.73;30.87;99023.74;2166007;81;21008;-80
2022/07/29 13:57:11;;;;;;;10.55;2.60;;;;;;;30.64;30.18;99020.80;2165846;82;20957;-78
2022/07/29 14:00:12;;;;;;;4.75;2.55;;;;;;;30.41;30.97;99019.14;2140272;82;20919;-80
2022/07/29 14:03:12;;;;;;;3.60;2.70;;;;;;;30.39;31.24;99020.20;2165842;81;20924;-81
2022/07/29 14:06:13;;;;;;;2.83;2.62;;;;;;;30.25;31.01;99014.35;2141509;82;21096;-81